sensor_id;sensor_type;location;lat;lon;timestamp;temperature;humidity
9305;DHT22;4690;52.422;13.486;2023-02-12T00:06:22;7.60;99.90
9305;DHT22;4690;52.422;13.486;2023-02-12T00:08:52;7.60;99.90
9305;DHT22;4690;52.422;13.486;2023-02-12T00:11:25;7.60;99.90
9305;DHT22;4690;52.422;13.486;2023-02-12T00:13:52;7.60;99.90
9305;DHT22;4690;52.422;13.486;2023-02-12T00:16:22;7.50;99.90
9305;DHT22;4690;52.422;13.486;2023-02-12T00:18:54;7.50;99.90
9305;DHT22;4690;52.422;13.486;2023-02-12T00:21:21;7.60;99.90
9305;DHT22;4690;52.422;13.486;2023-02-12T00:23:48;7.50;99.90
9305;DHT22;4690;52.422;13.486;2023-02-12T00:26:16;7.50;99.90
9305;DHT22;4690;52.422;13.486;2023-02-12T00:28:43;7.50;99.90
9305;DHT22;4690;52.422;13.486;2023-02-12T00:31:15;7.40;99.90
9305;DHT22;4690;52.422;13.486;2023-02-12T00:33:43;7.50;99.90
9305;DHT22;4690;52.422;13.486;2023-02-12T00:36:12;7.50;99.90
9305;DHT22;4690;52.422;13.486;2023-02-12T00:38:40;7.50;99.90
9305;DHT22;4690;52.422;13.486;2023-02-12T00:41:06;7.50;99.90
9305;DHT22;4690;52.422;13.486;2023-02-12T00:43:31;7.40;99.90
9305;DHT22;4690;52.422;13.486;2023-02-12T00:45:57;7.50;99.90
9305;DHT22;4690;52.422;13.486;2023-02-12T00:48:23;7.40;99.90
9305;DHT22;4690;52.422;13.486;2023-02-12T00:50:49;7.50;99.90
9305;DHT22;4690;52.422;13.486;2023-02-12T00:53:15;7.40;99.90
9305;DHT22;4690;52.422;13.486;2023-02-12T00:55:41;7.40;99.90
9305;DHT22;4690;52.422;13.486;2023-02-12T00:58:08;7.50;99.90
9305;DHT22;4690;52.422;13.486;2023-02-12T01:00:35;7.40;99.90
9305;DHT22;4690;52.422;13.486;2023-02-12T01:03:00;7.50;99.90
9305;DHT22;4690;52.422;13.486;2023-02-12T01:05:26;7.50;99.90
9305;DHT22;4690;52.422;13.486;2023-02-12T01:07:53;7.50;99.90
9305;DHT22;4690;52.422;13.486;2023-02-12T01:10:20;7.60;99.90
9305;DHT22;4690;52.422;13.486;2023-02-12T01:12:46;7.60;99.90
9305;DHT22;4690;52.422;13.486;2023-02-12T01:15:13;7.60;99.90
9305;DHT22;4690;52.422;13.486;2023-02-12T01:17:41;7.60;99.90
9305;DHT22;4690;52.422;13.486;2023-02-12T01:20:09;7.60;99.90
9305;DHT22;4690;52.422;13.486;2023-02-12T01:22:37;7.60;99.90
9305;DHT22;4690;52.422;13.486;2023-02-12T01:25:05;7.60;99.90
9305;DHT22;4690;52.422;13.486;2023-02-12T01:27:32;7.60;99.90
9305;DHT22;4690;52.422;13.486;2023-02-12T01:29:58;7.60;99.90
9305;DHT22;4690;52.422;13.486;2023-02-12T01:32:24;7.60;99.90
9305;DHT22;4690;52.422;13.486;2023-02-12T01:34:50;7.60;99.90
9305;DHT22;4690;52.422;13.486;2023-02-12T01:37:15;7.60;99.90
9305;DHT22;4690;52.422;13.486;2023-02-12T01:39:41;7.60;99.90
9305;DHT22;4690;52.422;13.486;2023-02-12T01:42:12;7.60;99.90
9305;DHT22;4690;52.422;13.486;2023-02-12T01:47:36;7.60;99.90
9305;DHT22;4690;52.422;13.486;2023-02-12T01:50:03;7.60;99.90
9305;DHT22;4690;52.422;13.486;2023-02-12T01:52:33;7.60;99.90
9305;DHT22;4690;52.422;13.486;2023-02-12T01:55:04;7.60;99.90
9305;DHT22;4690;52.422;13.486;2023-02-12T01:57:37;7.60;99.90
9305;DHT22;4690;52.422;13.486;2023-02-12T02:00:11;7.60;99.90
9305;DHT22;4690;52.422;13.486;2023-02-12T02:02:40;7.60;99.90
9305;DHT22;4690;52.422;13.486;2023-02-12T02:05:09;7.60;99.90
9305;DHT22;4690;52.422;13.486;2023-02-12T02:07:40;7.70;99.90
9305;DHT22;4690;52.422;13.486;2023-02-12T02:10:08;7.60;99.90
9305;DHT22;4690;52.422;13.486;2023-02-12T02:12:36;7.60;99.90
9305;DHT22;4690;52.422;13.486;2023-02-12T02:15:21;7.60;99.90
9305;DHT22;4690;52.422;13.486;2023-02-12T02:18:00;7.60;99.90
9305;DHT22;4690;52.422;13.486;2023-02-12T02:27:20;7.60;99.90
9305;DHT22;4690;52.422;13.486;2023-02-12T02:36:21;7.50;99.90
9305;DHT22;4690;52.422;13.486;2023-02-12T02:38:54;7.50;99.90
9305;DHT22;4690;52.422;13.486;2023-02-12T02:41:32;7.50;99.90
9305;DHT22;4690;52.422;13.486;2023-02-12T02:44:09;7.50;99.90
9305;DHT22;4690;52.422;13.486;2023-02-12T02:46:46;7.50;99.90
9305;DHT22;4690;52.422;13.486;2023-02-12T02:49:20;7.50;99.90
9305;DHT22;4690;52.422;13.486;2023-02-12T02:51:54;7.50;99.90
9305;DHT22;4690;52.422;13.486;2023-02-12T02:54:31;7.40;99.90
9305;DHT22;4690;52.422;13.486;2023-02-12T02:57:07;7.50;99.90
9305;DHT22;4690;52.422;13.486;2023-02-12T02:59:43;7.50;99.90
9305;DHT22;4690;52.422;13.486;2023-02-12T03:02:19;7.50;99.90
9305;DHT22;4690;52.422;13.486;2023-02-12T03:04:51;7.50;99.90
9305;DHT22;4690;52.422;13.486;2023-02-12T03:07:40;7.50;99.90
9305;DHT22;4690;52.422;13.486;2023-02-12T03:10:17;7.40;99.90
9305;DHT22;4690;52.422;13.486;2023-02-12T03:12:56;7.40;99.90
9305;DHT22;4690;52.422;13.486;2023-02-12T03:18:10;7.40;99.90
9305;DHT22;4690;52.422;13.486;2023-02-12T03:20:45;7.50;99.90
9305;DHT22;4690;52.422;13.486;2023-02-12T03:23:19;7.50;99.90
9305;DHT22;4690;52.422;13.486;2023-02-12T03:26:10;7.50;99.90
9305;DHT22;4690;52.422;13.486;2023-02-12T03:28:43;7.40;99.90
9305;DHT22;4690;52.422;13.486;2023-02-12T03:31:19;7.40;99.90
9305;DHT22;4690;52.422;13.486;2023-02-12T03:34:23;7.50;99.90
9305;DHT22;4690;52.422;13.486;2023-02-12T03:37:20;7.50;99.90
9305;DHT22;4690;52.422;13.486;2023-02-12T03:40:15;7.50;99.90
9305;DHT22;4690;52.422;13.486;2023-02-12T03:42:58;7.50;99.90
9305;DHT22;4690;52.422;13.486;2023-02-12T03:45:39;7.40;99.90
9305;DHT22;4690;52.422;13.486;2023-02-12T03:48:32;7.50;99.90
9305;DHT22;4690;52.422;13.486;2023-02-12T03:51:41;7.50;99.90
9305;DHT22;4690;52.422;13.486;2023-02-12T03:54:12;7.40;99.90
9305;DHT22;4690;52.422;13.486;2023-02-12T03:57:12;7.40;99.90
9305;DHT22;4690;52.422;13.486;2023-02-12T03:59:43;7.40;99.90
9305;DHT22;4690;52.422;13.486;2023-02-12T04:02:09;7.40;99.90
9305;DHT22;4690;52.422;13.486;2023-02-12T04:04:35;7.40;99.90
9305;DHT22;4690;52.422;13.486;2023-02-12T04:07:01;7.50;99.90
9305;DHT22;4690;52.422;13.486;2023-02-12T04:09:28;7.40;99.90
9305;DHT22;4690;52.422;13.486;2023-02-12T04:27:13;7.20;99.90
9305;DHT22;4690;52.422;13.486;2023-02-12T04:32:54;7.20;99.90
9305;DHT22;4690;52.422;13.486;2023-02-12T04:35:41;7.20;99.90
9305;DHT22;4690;52.422;13.486;2023-02-12T04:38:24;7.10;99.90
9305;DHT22;4690;52.422;13.486;2023-02-12T04:40:57;7.10;99.90
9305;DHT22;4690;52.422;13.486;2023-02-12T04:43:28;7.00;99.90
9305;DHT22;4690;52.422;13.486;2023-02-12T04:46:05;7.00;99.90
9305;DHT22;4690;52.422;13.486;2023-02-12T04:48:32;7.00;99.90
9305;DHT22;4690;52.422;13.486;2023-02-12T04:50:59;6.90;99.90
9305;DHT22;4690;52.422;13.486;2023-02-12T04:53:25;6.90;99.90
9305;DHT22;4690;52.422;13.486;2023-02-12T04:55:51;6.90;99.90
9305;DHT22;4690;52.422;13.486;2023-02-12T04:58:17;6.90;99.90
9305;DHT22;4690;52.422;13.486;2023-02-12T05:00:43;6.90;99.90
9305;DHT22;4690;52.422;13.486;2023-02-12T05:03:09;7.00;99.90
9305;DHT22;4690;52.422;13.486;2023-02-12T05:05:35;6.90;99.90
9305;DHT22;4690;52.422;13.486;2023-02-12T05:08:01;6.90;99.90
9305;DHT22;4690;52.422;13.486;2023-02-12T05:10:26;6.80;99.90
9305;DHT22;4690;52.422;13.486;2023-02-12T05:12:53;6.70;99.90
9305;DHT22;4690;52.422;13.486;2023-02-12T05:15:20;6.80;99.90
9305;DHT22;4690;52.422;13.486;2023-02-12T05:17:46;6.70;99.90
9305;DHT22;4690;52.422;13.486;2023-02-12T05:20:12;6.60;99.90
9305;DHT22;4690;52.422;13.486;2023-02-12T05:22:38;6.60;99.90
9305;DHT22;4690;52.422;13.486;2023-02-12T05:25:04;6.60;99.90
9305;DHT22;4690;52.422;13.486;2023-02-12T05:27:30;6.60;99.90
9305;DHT22;4690;52.422;13.486;2023-02-12T05:29:56;6.60;99.90
9305;DHT22;4690;52.422;13.486;2023-02-12T05:32:23;6.60;99.90
9305;DHT22;4690;52.422;13.486;2023-02-12T05:34:49;6.60;99.90
9305;DHT22;4690;52.422;13.486;2023-02-12T05:37:14;6.60;99.90
9305;DHT22;4690;52.422;13.486;2023-02-12T05:39:40;6.60;99.90
9305;DHT22;4690;52.422;13.486;2023-02-12T05:42:06;6.60;99.90
9305;DHT22;4690;52.422;13.486;2023-02-12T05:44:32;6.70;99.90
9305;DHT22;4690;52.422;13.486;2023-02-12T05:46:57;6.70;99.90
9305;DHT22;4690;52.422;13.486;2023-02-12T05:49:23;6.70;99.90
9305;DHT22;4690;52.422;13.486;2023-02-12T05:51:49;6.70;99.90
9305;DHT22;4690;52.422;13.486;2023-02-12T05:54:15;6.80;99.90
9305;DHT22;4690;52.422;13.486;2023-02-12T05:56:45;6.80;99.90
9305;DHT22;4690;52.422;13.486;2023-02-12T05:59:20;6.80;99.90
9305;DHT22;4690;52.422;13.486;2023-02-12T06:01:49;6.80;99.90
9305;DHT22;4690;52.422;13.486;2023-02-12T06:04:27;6.80;99.90
9305;DHT22;4690;52.422;13.486;2023-02-12T06:06:54;6.80;99.90
9305;DHT22;4690;52.422;13.486;2023-02-12T06:09:21;6.80;99.90
9305;DHT22;4690;52.422;13.486;2023-02-12T06:11:47;6.80;99.90
9305;DHT22;4690;52.422;13.486;2023-02-12T06:14:16;6.90;99.90
9305;DHT22;4690;52.422;13.486;2023-02-12T06:16:46;6.80;99.90
9305;DHT22;4690;52.422;13.486;2023-02-12T06:19:12;6.80;99.90
9305;DHT22;4690;52.422;13.486;2023-02-12T06:21:39;6.90;99.90
9305;DHT22;4690;52.422;13.486;2023-02-12T06:24:05;6.90;99.90
9305;DHT22;4690;52.422;13.486;2023-02-12T06:26:30;6.90;99.90
9305;DHT22;4690;52.422;13.486;2023-02-12T06:28:56;6.90;99.90
9305;DHT22;4690;52.422;13.486;2023-02-12T06:31:29;6.90;99.90
9305;DHT22;4690;52.422;13.486;2023-02-12T06:33:59;6.90;99.90
9305;DHT22;4690;52.422;13.486;2023-02-12T06:36:27;6.90;99.90
9305;DHT22;4690;52.422;13.486;2023-02-12T06:38:53;6.90;99.90
9305;DHT22;4690;52.422;13.486;2023-02-12T06:41:20;6.90;99.90
9305;DHT22;4690;52.422;13.486;2023-02-12T06:43:47;6.90;99.90
9305;DHT22;4690;52.422;13.486;2023-02-12T06:46:13;7.00;99.90
9305;DHT22;4690;52.422;13.486;2023-02-12T06:48:40;7.10;99.90
9305;DHT22;4690;52.422;13.486;2023-02-12T06:51:16;7.00;99.90
9305;DHT22;4690;52.422;13.486;2023-02-12T06:53:43;7.10;99.90
9305;DHT22;4690;52.422;13.486;2023-02-12T06:56:11;7.10;99.90
9305;DHT22;4690;52.422;13.486;2023-02-12T06:58:39;7.10;99.90
9305;DHT22;4690;52.422;13.486;2023-02-12T07:01:14;7.00;99.90
9305;DHT22;4690;52.422;13.486;2023-02-12T07:03:46;7.10;99.90
9305;DHT22;4690;52.422;13.486;2023-02-12T07:06:14;7.10;99.90
9305;DHT22;4690;52.422;13.486;2023-02-12T07:08:40;7.10;99.90
9305;DHT22;4690;52.422;13.486;2023-02-12T07:11:06;7.10;99.90
9305;DHT22;4690;52.422;13.486;2023-02-12T07:13:35;7.20;99.90
9305;DHT22;4690;52.422;13.486;2023-02-12T07:16:05;7.10;99.90
9305;DHT22;4690;52.422;13.486;2023-02-12T07:18:33;7.20;99.90
9305;DHT22;4690;52.422;13.486;2023-02-12T07:21:00;7.20;99.90
9305;DHT22;4690;52.422;13.486;2023-02-12T07:23:26;7.30;99.90
9305;DHT22;4690;52.422;13.486;2023-02-12T07:26:03;7.30;99.90
9305;DHT22;4690;52.422;13.486;2023-02-12T07:28:31;7.30;99.90
9305;DHT22;4690;52.422;13.486;2023-02-12T07:30:58;7.30;99.90
9305;DHT22;4690;52.422;13.486;2023-02-12T07:33:33;7.30;99.90
9305;DHT22;4690;52.422;13.486;2023-02-12T07:36:00;7.30;99.90
9305;DHT22;4690;52.422;13.486;2023-02-12T07:38:26;7.40;99.90
9305;DHT22;4690;52.422;13.486;2023-02-12T07:41:05;7.40;99.90
9305;DHT22;4690;52.422;13.486;2023-02-12T07:43:34;7.40;99.90
9305;DHT22;4690;52.422;13.486;2023-02-12T07:46:12;7.40;99.90
9305;DHT22;4690;52.422;13.486;2023-02-12T07:48:47;7.50;99.90
9305;DHT22;4690;52.422;13.486;2023-02-12T07:51:16;7.40;99.90
9305;DHT22;4690;52.422;13.486;2023-02-12T07:53:47;7.50;99.90
9305;DHT22;4690;52.422;13.486;2023-02-12T07:56:22;7.50;99.90
9305;DHT22;4690;52.422;13.486;2023-02-12T07:58:51;7.50;99.90
9305;DHT22;4690;52.422;13.486;2023-02-12T08:01:27;7.50;99.90
9305;DHT22;4690;52.422;13.486;2023-02-12T08:04:09;7.50;99.90
9305;DHT22;4690;52.422;13.486;2023-02-12T08:06:45;7.40;99.90
9305;DHT22;4690;52.422;13.486;2023-02-12T08:09:18;7.40;99.90
9305;DHT22;4690;52.422;13.486;2023-02-12T08:11:46;7.40;99.90
9305;DHT22;4690;52.422;13.486;2023-02-12T08:14:14;7.50;99.90
9305;DHT22;4690;52.422;13.486;2023-02-12T08:16:42;7.50;99.90
9305;DHT22;4690;52.422;13.486;2023-02-12T08:19:09;7.40;99.90
9305;DHT22;4690;52.422;13.486;2023-02-12T08:21:36;7.50;99.90
9305;DHT22;4690;52.422;13.486;2023-02-12T08:24:02;7.50;99.90
9305;DHT22;4690;52.422;13.486;2023-02-12T08:26:33;7.50;99.90
9305;DHT22;4690;52.422;13.486;2023-02-12T08:29:07;7.50;99.90
9305;DHT22;4690;52.422;13.486;2023-02-12T08:31:40;7.50;99.90
9305;DHT22;4690;52.422;13.486;2023-02-12T08:34:17;7.50;99.90
9305;DHT22;4690;52.422;13.486;2023-02-12T08:36:52;7.50;99.90
9305;DHT22;4690;52.422;13.486;2023-02-12T08:39:19;7.50;99.90
9305;DHT22;4690;52.422;13.486;2023-02-12T08:41:46;7.50;99.90
9305;DHT22;4690;52.422;13.486;2023-02-12T08:44:12;7.50;99.90
9305;DHT22;4690;52.422;13.486;2023-02-12T08:46:45;7.50;99.90
9305;DHT22;4690;52.422;13.486;2023-02-12T08:49:17;7.50;99.90
9305;DHT22;4690;52.422;13.486;2023-02-12T08:51:46;7.50;99.90
9305;DHT22;4690;52.422;13.486;2023-02-12T08:54:19;7.50;99.90
9305;DHT22;4690;52.422;13.486;2023-02-12T08:56:50;7.50;99.90
9305;DHT22;4690;52.422;13.486;2023-02-12T08:59:20;7.50;99.90
9305;DHT22;4690;52.422;13.486;2023-02-12T09:01:49;7.60;99.90
9305;DHT22;4690;52.422;13.486;2023-02-12T09:04:26;7.60;99.90
9305;DHT22;4690;52.422;13.486;2023-02-12T09:06:54;7.60;99.90
9305;DHT22;4690;52.422;13.486;2023-02-12T09:09:20;7.60;99.90
9305;DHT22;4690;52.422;13.486;2023-02-12T09:11:47;7.70;99.90
9305;DHT22;4690;52.422;13.486;2023-02-12T09:14:15;7.60;99.90
9305;DHT22;4690;52.422;13.486;2023-02-12T09:16:42;7.60;99.90
9305;DHT22;4690;52.422;13.486;2023-02-12T09:19:10;7.70;99.90
9305;DHT22;4690;52.422;13.486;2023-02-12T09:21:38;7.70;99.90
9305;DHT22;4690;52.422;13.486;2023-02-12T09:24:04;7.60;99.90
9305;DHT22;4690;52.422;13.486;2023-02-12T09:26:30;7.70;99.90
9305;DHT22;4690;52.422;13.486;2023-02-12T09:28:56;7.60;99.90
9305;DHT22;4690;52.422;13.486;2023-02-12T09:31:26;7.70;99.90
9305;DHT22;4690;52.422;13.486;2023-02-12T09:33:57;7.60;99.90
9305;DHT22;4690;52.422;13.486;2023-02-12T09:36:25;7.70;99.90
9305;DHT22;4690;52.422;13.486;2023-02-12T09:38:51;7.70;99.90
9305;DHT22;4690;52.422;13.486;2023-02-12T09:44:10;7.70;99.90
9305;DHT22;4690;52.422;13.486;2023-02-12T09:47:02;7.70;99.90
9305;DHT22;4690;52.422;13.486;2023-02-12T09:52:45;7.80;99.90
9305;DHT22;4690;52.422;13.486;2023-02-12T09:55:15;7.90;99.90
9305;DHT22;4690;52.422;13.486;2023-02-12T09:57:44;7.90;99.90
9305;DHT22;4690;52.422;13.486;2023-02-12T10:00:17;8.10;99.90
9305;DHT22;4690;52.422;13.486;2023-02-12T10:02:51;8.10;99.90
9305;DHT22;4690;52.422;13.486;2023-02-12T10:05:31;8.10;99.90
9305;DHT22;4690;52.422;13.486;2023-02-12T10:27:59;8.50;99.90
9305;DHT22;4690;52.422;13.486;2023-02-12T10:30:52;8.60;99.90
9305;DHT22;4690;52.422;13.486;2023-02-12T10:39:32;8.70;99.90
9305;DHT22;4690;52.422;13.486;2023-02-12T10:42:22;8.70;99.90
9305;DHT22;4690;52.422;13.486;2023-02-12T10:44:51;8.80;99.90
9305;DHT22;4690;52.422;13.486;2023-02-12T10:47:19;8.90;99.90
9305;DHT22;4690;52.422;13.486;2023-02-12T10:49:58;8.90;99.90
9305;DHT22;4690;52.422;13.486;2023-02-12T10:52:32;9.00;99.90
9305;DHT22;4690;52.422;13.486;2023-02-12T10:58:04;9.00;99.90
9305;DHT22;4690;52.422;13.486;2023-02-12T11:00:43;9.00;99.90
9305;DHT22;4690;52.422;13.486;2023-02-12T11:05:42;8.80;99.90
9305;DHT22;4690;52.422;13.486;2023-02-12T11:08:34;8.80;99.90
9305;DHT22;4690;52.422;13.486;2023-02-12T11:13:40;8.70;99.90
9305;DHT22;4690;52.422;13.486;2023-02-12T11:16:10;8.60;99.90
9305;DHT22;4690;52.422;13.486;2023-02-12T11:18:37;8.60;99.90
9305;DHT22;4690;52.422;13.486;2023-02-12T11:23:41;8.40;99.90
9305;DHT22;4690;52.422;13.486;2023-02-12T11:31:29;8.30;99.90
9305;DHT22;4690;52.422;13.486;2023-02-12T11:36:51;8.40;99.90
9305;DHT22;4690;52.422;13.486;2023-02-12T11:39:36;8.50;99.90
9305;DHT22;4690;52.422;13.486;2023-02-12T11:42:16;8.50;99.90
9305;DHT22;4690;52.422;13.486;2023-02-12T11:44:50;8.50;99.90
9305;DHT22;4690;52.422;13.486;2023-02-12T11:47:24;8.50;99.90
9305;DHT22;4690;52.422;13.486;2023-02-12T11:49:58;8.50;99.90
9305;DHT22;4690;52.422;13.486;2023-02-12T11:52:33;8.60;99.90
9305;DHT22;4690;52.422;13.486;2023-02-12T11:55:23;8.60;99.90
9305;DHT22;4690;52.422;13.486;2023-02-12T11:58:00;8.60;99.90
9305;DHT22;4690;52.422;13.486;2023-02-12T12:01:02;8.60;99.90
9305;DHT22;4690;52.422;13.486;2023-02-12T12:04:05;8.60;99.90
9305;DHT22;4690;52.422;13.486;2023-02-12T12:06:37;8.70;99.90
9305;DHT22;4690;52.422;13.486;2023-02-12T12:09:24;8.70;99.90
9305;DHT22;4690;52.422;13.486;2023-02-12T12:14:33;8.70;99.90
9305;DHT22;4690;52.422;13.486;2023-02-12T12:17:37;8.60;99.90
9305;DHT22;4690;52.422;13.486;2023-02-12T12:20:27;8.60;99.90
9305;DHT22;4690;52.422;13.486;2023-02-12T12:23:31;8.70;99.90
9305;DHT22;4690;52.422;13.486;2023-02-12T12:26:13;9.00;99.90
9305;DHT22;4690;52.422;13.486;2023-02-12T12:31:57;9.50;99.90
9305;DHT22;4690;52.422;13.486;2023-02-12T12:34:27;9.50;99.90
9305;DHT22;4690;52.422;13.486;2023-02-12T13:09:59;10.30;99.90
9305;DHT22;4690;52.422;13.486;2023-02-12T13:12:50;10.30;99.90
9305;DHT22;4690;52.422;13.486;2023-02-12T13:15:33;10.30;99.90
9305;DHT22;4690;52.422;13.486;2023-02-12T13:24:04;10.50;99.90
9305;DHT22;4690;52.422;13.486;2023-02-12T13:26:53;10.30;99.90
9305;DHT22;4690;52.422;13.486;2023-02-12T13:29:34;10.20;99.90
9305;DHT22;4690;52.422;13.486;2023-02-12T13:32:10;10.10;99.90
9305;DHT22;4690;52.422;13.486;2023-02-12T13:34:46;10.00;99.90
9305;DHT22;4690;52.422;13.486;2023-02-12T13:37:18;9.90;99.90
9305;DHT22;4690;52.422;13.486;2023-02-12T13:39:58;9.90;99.90
9305;DHT22;4690;52.422;13.486;2023-02-12T13:56:49;9.80;99.90
9305;DHT22;4690;52.422;13.486;2023-02-12T13:59:37;10.00;99.90
9305;DHT22;4690;52.422;13.486;2023-02-12T14:05:02;10.60;99.90
9305;DHT22;4690;52.422;13.486;2023-02-12T14:10:27;10.90;99.90
9305;DHT22;4690;52.422;13.486;2023-02-12T14:13:20;10.70;99.90
9305;DHT22;4690;52.422;13.486;2023-02-12T14:15:51;10.70;99.90
9305;DHT22;4690;52.422;13.486;2023-02-12T14:18:36;10.70;99.90
9305;DHT22;4690;52.422;13.486;2023-02-12T14:23:44;10.80;99.90
9305;DHT22;4690;52.422;13.486;2023-02-12T14:26:16;10.70;99.90
9305;DHT22;4690;52.422;13.486;2023-02-12T14:29:03;10.60;99.90
9305;DHT22;4690;52.422;13.486;2023-02-12T14:31:41;10.50;99.90
9305;DHT22;4690;52.422;13.486;2023-02-12T14:41:50;10.20;99.90
9305;DHT22;4690;52.422;13.486;2023-02-12T14:49:39;9.80;99.90
9305;DHT22;4690;52.422;13.486;2023-02-12T15:00:23;9.60;99.90
9305;DHT22;4690;52.422;13.486;2023-02-12T15:03:15;9.50;99.90
9305;DHT22;4690;52.422;13.486;2023-02-12T15:14:05;9.50;99.90
9305;DHT22;4690;52.422;13.486;2023-02-12T15:16:44;9.50;99.90
9305;DHT22;4690;52.422;13.486;2023-02-12T15:22:35;9.50;99.90
9305;DHT22;4690;52.422;13.486;2023-02-12T15:25:27;9.40;99.90
9305;DHT22;4690;52.422;13.486;2023-02-12T15:30:49;9.40;99.90
9305;DHT22;4690;52.422;13.486;2023-02-12T15:33:26;9.40;99.90
9305;DHT22;4690;52.422;13.486;2023-02-12T15:35:53;9.40;99.90
9305;DHT22;4690;52.422;13.486;2023-02-12T15:41:03;9.40;99.90
9305;DHT22;4690;52.422;13.486;2023-02-12T15:43:31;9.30;99.90
9305;DHT22;4690;52.422;13.486;2023-02-12T15:46:04;9.30;99.90
9305;DHT22;4690;52.422;13.486;2023-02-12T15:48:36;9.30;99.90
9305;DHT22;4690;52.422;13.486;2023-02-12T15:51:28;9.30;99.90
9305;DHT22;4690;52.422;13.486;2023-02-12T15:54:00;9.30;99.90
9305;DHT22;4690;52.422;13.486;2023-02-12T15:56:30;9.30;99.90
9305;DHT22;4690;52.422;13.486;2023-02-12T15:58:59;9.20;99.90
9305;DHT22;4690;52.422;13.486;2023-02-12T16:01:32;9.20;99.90
9305;DHT22;4690;52.422;13.486;2023-02-12T16:04:02;9.10;99.90
9305;DHT22;4690;52.422;13.486;2023-02-12T16:06:32;9.10;99.90
9305;DHT22;4690;52.422;13.486;2023-02-12T16:09:07;9.10;99.90
9305;DHT22;4690;52.422;13.486;2023-02-12T16:11:50;9.10;99.90
9305;DHT22;4690;52.422;13.486;2023-02-12T16:14:22;9.00;99.90
9305;DHT22;4690;52.422;13.486;2023-02-12T16:16:51;9.00;99.90
9305;DHT22;4690;52.422;13.486;2023-02-12T16:19:27;8.90;99.90
9305;DHT22;4690;52.422;13.486;2023-02-12T16:22:00;8.90;99.90
9305;DHT22;4690;52.422;13.486;2023-02-12T16:24:36;8.90;99.90
9305;DHT22;4690;52.422;13.486;2023-02-12T16:27:22;8.90;99.90
9305;DHT22;4690;52.422;13.486;2023-02-12T16:29:57;8.80;99.90
9305;DHT22;4690;52.422;13.486;2023-02-12T16:32:35;8.80;99.90
9305;DHT22;4690;52.422;13.486;2023-02-12T16:35:22;8.80;99.90
9305;DHT22;4690;52.422;13.486;2023-02-12T16:40:38;8.70;99.90
9305;DHT22;4690;52.422;13.486;2023-02-12T16:43:24;8.70;99.90
9305;DHT22;4690;52.422;13.486;2023-02-12T16:46:01;8.70;99.90
9305;DHT22;4690;52.422;13.486;2023-02-12T16:48:29;8.70;99.90
9305;DHT22;4690;52.422;13.486;2023-02-12T16:51:01;8.70;99.90
9305;DHT22;4690;52.422;13.486;2023-02-12T16:55:57;8.70;99.90
9305;DHT22;4690;52.422;13.486;2023-02-12T16:58:24;8.70;99.90
9305;DHT22;4690;52.422;13.486;2023-02-12T17:00:54;8.80;99.90
9305;DHT22;4690;52.422;13.486;2023-02-12T17:03:22;8.90;99.90
9305;DHT22;4690;52.422;13.486;2023-02-12T17:05:49;8.90;99.90
9305;DHT22;4690;52.422;13.486;2023-02-12T17:08:18;8.90;99.90
9305;DHT22;4690;52.422;13.486;2023-02-12T17:10:46;8.90;99.90
9305;DHT22;4690;52.422;13.486;2023-02-12T17:13:16;8.90;99.90
9305;DHT22;4690;52.422;13.486;2023-02-12T17:15:54;8.90;99.90
9305;DHT22;4690;52.422;13.486;2023-02-12T17:18:22;8.90;99.90
9305;DHT22;4690;52.422;13.486;2023-02-12T17:20:55;8.90;99.90
9305;DHT22;4690;52.422;13.486;2023-02-12T17:23:23;8.90;99.90
9305;DHT22;4690;52.422;13.486;2023-02-12T17:25:50;8.90;99.90
9305;DHT22;4690;52.422;13.486;2023-02-12T17:28:16;8.90;99.90
9305;DHT22;4690;52.422;13.486;2023-02-12T17:30:42;8.90;99.90
9305;DHT22;4690;52.422;13.486;2023-02-12T17:33:08;8.80;99.90
9305;DHT22;4690;52.422;13.486;2023-02-12T17:35:37;8.80;99.90
9305;DHT22;4690;52.422;13.486;2023-02-12T17:38:04;8.80;99.90
9305;DHT22;4690;52.422;13.486;2023-02-12T17:40:31;8.80;99.90
9305;DHT22;4690;52.422;13.486;2023-02-12T17:42:59;8.80;99.90
9305;DHT22;4690;52.422;13.486;2023-02-12T17:45:25;8.80;99.90
9305;DHT22;4690;52.422;13.486;2023-02-12T17:47:51;8.80;99.90
9305;DHT22;4690;52.422;13.486;2023-02-12T17:50:16;8.70;99.90
9305;DHT22;4690;52.422;13.486;2023-02-12T17:52:42;8.70;99.90
9305;DHT22;4690;52.422;13.486;2023-02-12T17:55:09;8.60;99.90
9305;DHT22;4690;52.422;13.486;2023-02-12T17:57:36;8.60;99.90
9305;DHT22;4690;52.422;13.486;2023-02-12T18:00:06;8.60;99.90
9305;DHT22;4690;52.422;13.486;2023-02-12T18:02:34;8.60;99.90
9305;DHT22;4690;52.422;13.486;2023-02-12T18:05:00;8.60;99.90
9305;DHT22;4690;52.422;13.486;2023-02-12T18:07:26;8.50;99.90
9305;DHT22;4690;52.422;13.486;2023-02-12T18:09:52;8.50;99.90
9305;DHT22;4690;52.422;13.486;2023-02-12T18:12:17;8.50;99.90
9305;DHT22;4690;52.422;13.486;2023-02-12T18:14:43;8.50;99.90
9305;DHT22;4690;52.422;13.486;2023-02-12T18:17:09;8.60;99.90
9305;DHT22;4690;52.422;13.486;2023-02-12T18:19:35;8.50;99.90
9305;DHT22;4690;52.422;13.486;2023-02-12T18:22:01;8.50;99.90
9305;DHT22;4690;52.422;13.486;2023-02-12T18:24:26;8.40;99.90
9305;DHT22;4690;52.422;13.486;2023-02-12T18:26:52;8.40;99.90
9305;DHT22;4690;52.422;13.486;2023-02-12T18:29:18;8.30;99.90
9305;DHT22;4690;52.422;13.486;2023-02-12T18:31:44;8.20;99.90
9305;DHT22;4690;52.422;13.486;2023-02-12T18:34:10;8.20;99.90
9305;DHT22;4690;52.422;13.486;2023-02-12T18:36:36;8.20;99.90
9305;DHT22;4690;52.422;13.486;2023-02-12T18:39:02;8.10;99.90
9305;DHT22;4690;52.422;13.486;2023-02-12T18:41:30;8.10;99.90
9305;DHT22;4690;52.422;13.486;2023-02-12T18:43:57;8.10;99.90
9305;DHT22;4690;52.422;13.486;2023-02-12T18:46:27;8.10;99.90
9305;DHT22;4690;52.422;13.486;2023-02-12T18:48:54;8.00;99.90
9305;DHT22;4690;52.422;13.486;2023-02-12T18:51:23;8.00;99.90
9305;DHT22;4690;52.422;13.486;2023-02-12T18:53:56;8.00;99.90
9305;DHT22;4690;52.422;13.486;2023-02-12T18:56:27;8.00;99.90
9305;DHT22;4690;52.422;13.486;2023-02-12T18:58:55;8.00;99.90
9305;DHT22;4690;52.422;13.486;2023-02-12T19:01:24;7.90;99.90
9305;DHT22;4690;52.422;13.486;2023-02-12T19:03:56;7.90;99.90
9305;DHT22;4690;52.422;13.486;2023-02-12T19:06:28;7.90;99.90
9305;DHT22;4690;52.422;13.486;2023-02-12T19:08:59;7.90;99.90
9305;DHT22;4690;52.422;13.486;2023-02-12T19:11:28;7.90;99.90
9305;DHT22;4690;52.422;13.486;2023-02-12T19:13:54;7.90;99.90
9305;DHT22;4690;52.422;13.486;2023-02-12T19:16:21;7.80;99.90
9305;DHT22;4690;52.422;13.486;2023-02-12T19:18:49;7.80;99.90
9305;DHT22;4690;52.422;13.486;2023-02-12T19:21:19;7.80;99.90
9305;DHT22;4690;52.422;13.486;2023-02-12T19:23:46;7.80;99.90
9305;DHT22;4690;52.422;13.486;2023-02-12T19:26:14;7.80;99.90
9305;DHT22;4690;52.422;13.486;2023-02-12T19:28:41;7.80;99.90
9305;DHT22;4690;52.422;13.486;2023-02-12T19:31:19;7.80;99.90
9305;DHT22;4690;52.422;13.486;2023-02-12T19:33:54;7.80;99.90
9305;DHT22;4690;52.422;13.486;2023-02-12T19:36:22;7.70;99.90
9305;DHT22;4690;52.422;13.486;2023-02-12T19:38:49;7.70;99.90
9305;DHT22;4690;52.422;13.486;2023-02-12T19:41:18;7.70;99.90
9305;DHT22;4690;52.422;13.486;2023-02-12T19:43:47;7.70;99.90
9305;DHT22;4690;52.422;13.486;2023-02-12T19:46:16;7.70;99.90
9305;DHT22;4690;52.422;13.486;2023-02-12T19:48:45;7.70;99.90
9305;DHT22;4690;52.422;13.486;2023-02-12T19:51:17;7.70;99.90
9305;DHT22;4690;52.422;13.486;2023-02-12T19:53:45;7.70;99.90